createdAt,value
2023-10-13T00:02:07.388Z,18.48
2023-10-13T00:04:37.158Z,20.75
2023-10-13T00:07:05.621Z,20.10
2023-10-13T00:09:33.661Z,15.32
2023-10-13T00:12:01.521Z,12.70
2023-10-13T00:14:34.939Z,14.52
2023-10-13T00:17:07.112Z,14.80
2023-10-13T00:19:39.188Z,13.68
2023-10-13T00:22:10.714Z,17.33
2023-10-13T00:24:43.951Z,16.05
2023-10-13T00:27:30.879Z,15.98
2023-10-13T00:30:17.888Z,19.12
2023-10-13T00:32:47.676Z,17.55
2023-10-13T00:35:30.149Z,14.15
2023-10-13T00:38:05.382Z,13.95
2023-10-13T00:40:33.329Z,18.83
2023-10-13T00:43:20.209Z,14.25
2023-10-13T00:46:04.005Z,16.35
2023-10-13T00:48:43.269Z,18.05
2023-10-13T00:51:20.056Z,19.77
2023-10-13T00:53:48.971Z,16.58
2023-10-13T00:56:24.801Z,13.52
2023-10-13T00:58:53.655Z,21.45
2023-10-13T01:01:30.027Z,16.10
2023-10-13T01:04:00.330Z,19.70
2023-10-13T01:06:28.331Z,17.30
2023-10-13T01:09:00.963Z,15.15
2023-10-13T01:11:30.955Z,16.33
2023-10-13T01:13:58.448Z,18.23
2023-10-13T01:16:27.962Z,17.60
2023-10-13T01:19:00.736Z,17.65
2023-10-13T01:21:28.972Z,18.45
2023-10-13T01:23:56.675Z,16.95
2023-10-13T01:26:28.237Z,14.55
2023-10-13T01:28:58.727Z,14.82
2023-10-13T01:31:28.762Z,13.13
2023-10-13T01:33:59.819Z,14.90
2023-10-13T01:36:27.860Z,20.25
2023-10-13T01:38:55.273Z,19.52
2023-10-13T01:41:22.885Z,13.07
2023-10-13T01:43:50.545Z,17.08
2023-10-13T01:46:20.711Z,14.02
2023-10-13T01:48:48.317Z,12.52
2023-10-13T01:51:16.085Z,12.90
2023-10-13T01:53:43.631Z,14.87
2023-10-13T01:56:15.296Z,16.00
2023-10-13T01:58:43.586Z,16.02
2023-10-13T02:01:14.803Z,15.73
2023-10-13T02:03:49.804Z,14.68
2023-10-13T02:06:25.070Z,17.75
2023-10-13T02:08:58.137Z,17.35
2023-10-13T02:11:25.604Z,13.90
2023-10-13T02:13:55.226Z,17.80
2023-10-13T02:16:23.658Z,14.43
2023-10-13T02:18:54.043Z,13.95
2023-10-13T02:21:22.296Z,14.07
2023-10-13T02:24:01.158Z,21.23
2023-10-13T02:26:39.791Z,16.58
2023-10-13T02:29:19.272Z,13.95
2023-10-13T02:31:56.958Z,12.95
2023-10-13T02:34:25.694Z,16.33
2023-10-13T02:36:55.159Z,12.63
2023-10-13T02:39:28.749Z,17.08
2023-10-13T02:41:57.383Z,13.73
2023-10-13T02:44:28.648Z,18.90
2023-10-13T02:47:00.216Z,14.93
2023-10-13T02:49:28.299Z,15.55
2023-10-13T02:51:57.127Z,13.62
2023-10-13T02:54:31.356Z,19.17
2023-10-13T02:57:00.358Z,10.85
2023-10-13T02:59:47.865Z,11.00
2023-10-13T03:02:19.286Z,12.73
2023-10-13T03:05:00.797Z,12.98
2023-10-13T03:07:31.657Z,10.68
2023-10-13T03:10:01.763Z,14.65
2023-10-13T03:12:34.419Z,12.73
2023-10-13T03:15:18.420Z,13.75
2023-10-13T03:17:46.555Z,11.68
2023-10-13T03:20:16.471Z,15.35
2023-10-13T03:22:46.347Z,15.75
2023-10-13T03:25:24.151Z,19.02
2023-10-13T03:27:52.387Z,13.43
2023-10-13T03:30:21.918Z,16.15
2023-10-13T03:32:56.423Z,11.98
2023-10-13T03:35:32.585Z,18.85
2023-10-13T03:38:00.061Z,17.87
2023-10-13T03:40:27.692Z,12.43
2023-10-13T03:43:06.095Z,12.98
2023-10-13T03:45:39.963Z,15.63
2023-10-13T03:48:10.867Z,15.73
2023-10-13T03:50:47.223Z,15.25
2023-10-13T03:53:14.724Z,20.17
2023-10-13T03:55:49.126Z,14.82
2023-10-13T03:58:18.398Z,15.82
2023-10-13T04:00:46.281Z,13.38
2023-10-13T04:03:19.207Z,15.85
2023-10-13T04:06:02.104Z,14.38
2023-10-13T04:08:30.017Z,16.12
2023-10-13T04:10:59.453Z,15.52
2023-10-13T04:13:45.751Z,16.90
2023-10-13T04:16:35.986Z,15.73
2023-10-13T04:19:03.995Z,14.70
2023-10-13T04:21:41.304Z,15.65
2023-10-13T04:24:18.414Z,11.60
2023-10-13T04:27:04.911Z,14.27
2023-10-13T04:29:52.885Z,14.45
2023-10-13T04:32:30.051Z,12.98
2023-10-13T04:35:09.546Z,16.52
2023-10-13T04:38:02.342Z,16.75
2023-10-13T04:40:36.587Z,15.35
2023-10-13T04:43:27.328Z,19.27
2023-10-13T04:45:59.605Z,13.75
2023-10-13T04:48:27.345Z,20.10
2023-10-13T04:51:20.167Z,19.05
2023-10-13T04:54:06.897Z,16.40
2023-10-13T04:56:43.176Z,14.50
2023-10-13T04:59:19.574Z,19.52
2023-10-13T05:02:06.183Z,14.45
2023-10-13T05:04:58.543Z,16.48
2023-10-13T05:07:44.900Z,18.40
2023-10-13T05:10:31.532Z,16.55
2023-10-13T05:13:17.890Z,17.37
2023-10-13T05:16:06.615Z,12.27
2023-10-13T05:18:52.870Z,14.18
2023-10-13T05:21:39.197Z,17.95
2023-10-13T05:24:25.418Z,17.62
2023-10-13T05:27:12.029Z,19.37
2023-10-13T05:29:58.529Z,15.65
2023-10-13T05:32:45.278Z,15.52
2023-10-13T05:35:31.997Z,22.42
2023-10-13T05:38:18.354Z,16.60
2023-10-13T05:44:04.144Z,18.70
2023-10-13T05:46:41.056Z,16.52
2023-10-13T05:49:13.057Z,27.33
2023-10-13T05:51:40.480Z,21.73
2023-10-13T05:54:16.782Z,28.02
2023-10-13T05:57:08.202Z,20.23
2023-10-13T05:59:55.043Z,21.62
2023-10-13T06:02:42.549Z,19.37
2023-10-13T06:05:30.438Z,22.77
2023-10-13T06:08:16.835Z,24.50
2023-10-13T06:11:03.739Z,16.40
2023-10-13T06:13:49.949Z,19.02
2023-10-13T06:16:36.356Z,20.80
2023-10-13T06:19:22.824Z,24.95
2023-10-13T06:22:09.916Z,16.40
2023-10-13T06:24:56.008Z,18.52
2023-10-13T06:27:42.594Z,25.10
2023-10-13T06:30:10.333Z,19.40
2023-10-13T06:32:41.091Z,17.58
2023-10-13T06:35:09.121Z,20.10
2023-10-13T06:37:43.332Z,21.50
2023-10-13T06:40:27.522Z,22.98
2023-10-13T06:42:56.353Z,22.98
2023-10-13T06:45:29.261Z,21.95
2023-10-13T06:47:59.832Z,26.98
2023-10-13T06:50:29.219Z,18.27
2023-10-13T06:52:56.689Z,18.80
2023-10-13T06:55:29.060Z,20.00
2023-10-13T06:58:01.335Z,22.67
2023-10-13T07:00:31.198Z,16.98
2023-10-13T07:03:10.160Z,25.15
2023-10-13T07:05:42.648Z,16.73
2023-10-13T07:08:15.050Z,16.70
2023-10-13T07:11:18.496Z,22.30
2023-10-13T07:13:52.260Z,16.17
2023-10-13T07:16:30.226Z,20.02
2023-10-13T07:19:05.515Z,18.95
2023-10-13T07:21:34.712Z,23.10
2023-10-13T07:24:09.536Z,22.00
2023-10-13T07:26:48.573Z,13.75
2023-10-13T07:29:16.356Z,22.62
2023-10-13T07:31:46.906Z,13.65
2023-10-13T07:34:22.067Z,17.95
2023-10-13T07:36:50.882Z,23.53
2023-10-13T07:39:35.095Z,13.40
2023-10-13T07:42:20.731Z,21.23
2023-10-13T07:44:48.402Z,15.43
2023-10-13T07:47:16.464Z,15.82
2023-10-13T07:49:44.523Z,18.65
2023-10-13T07:52:21.941Z,20.08
2023-10-13T07:55:00.898Z,16.80
2023-10-13T07:57:31.010Z,22.08
2023-10-13T08:00:26.794Z,17.33
2023-10-13T08:03:10.437Z,17.83
2023-10-13T08:05:43.776Z,21.00
2023-10-13T08:08:15.394Z,16.58
2023-10-13T08:10:46.740Z,15.98
2023-10-13T08:13:14.836Z,16.83
2023-10-13T08:15:48.783Z,17.73
2023-10-13T08:18:26.065Z,17.27
2023-10-13T08:20:55.262Z,18.25
2023-10-13T08:23:39.267Z,15.25
2023-10-13T08:26:29.208Z,16.60
2023-10-13T08:29:20.391Z,15.35
2023-10-13T08:32:11.026Z,24.60
2023-10-13T08:34:44.722Z,15.55
2023-10-13T08:37:24.363Z,17.20
2023-10-13T08:40:06.831Z,24.75
2023-10-13T08:43:04.041Z,15.02
2023-10-13T08:45:31.845Z,15.25
2023-10-13T08:48:09.232Z,13.07
2023-10-13T08:50:49.700Z,15.57
2023-10-13T08:53:30.140Z,16.02
2023-10-13T08:56:09.993Z,15.82
2023-10-13T08:58:56.940Z,21.15
2023-10-13T09:01:44.458Z,27.52
2023-10-13T09:04:19.081Z,22.10
2023-10-13T09:06:49.229Z,24.90
2023-10-13T09:09:36.130Z,23.05
2023-10-13T09:12:10.906Z,25.02
2023-10-13T09:14:43.683Z,25.50
2023-10-13T09:17:31.780Z,20.20
2023-10-13T09:20:25.451Z,25.05
2023-10-13T09:23:03.443Z,31.98
2023-10-13T09:25:35.899Z,25.42
2023-10-13T09:28:18.824Z,27.15
2023-10-13T09:30:53.834Z,25.05
2023-10-13T09:33:29.729Z,22.95
2023-10-13T09:36:00.428Z,24.33
2023-10-13T09:38:29.452Z,29.48
2023-10-13T09:41:02.999Z,24.90
2023-10-13T09:43:31.703Z,27.65
2023-10-13T09:46:03.577Z,30.62
2023-10-13T09:48:37.333Z,35.45
2023-10-13T09:51:08.012Z,23.85
2023-10-13T09:53:36.008Z,23.23
2023-10-13T09:56:20.280Z,27.87
2023-10-13T09:58:52.245Z,30.85
2023-10-13T10:01:32.406Z,27.30
2023-10-13T10:04:12.540Z,23.85
2023-10-13T10:06:47.419Z,27.95
2023-10-13T10:09:15.266Z,23.45
2023-10-13T10:12:10.733Z,27.25
2023-10-13T10:14:59.769Z,32.20
2023-10-13T10:17:30.858Z,22.67
2023-10-13T10:19:58.804Z,19.35
2023-10-13T10:22:34.718Z,23.77
2023-10-13T10:25:03.851Z,31.60
2023-10-13T10:27:32.564Z,33.20
2023-10-13T10:30:00.215Z,30.00
2023-10-13T10:32:43.250Z,27.30
2023-10-13T10:35:21.842Z,26.98
2023-10-13T10:37:49.755Z,26.48
2023-10-13T10:40:43.144Z,39.80
2023-10-13T10:43:29.416Z,30.92
2023-10-13T10:46:00.779Z,31.95
2023-10-13T10:48:35.960Z,28.00
2023-10-13T10:51:22.232Z,22.87
2023-10-13T10:53:51.556Z,18.90
2023-10-13T10:56:35.842Z,19.10
2023-10-13T10:59:05.607Z,30.17
2023-10-13T11:01:39.711Z,23.17
2023-10-13T11:04:34.253Z,26.17
2023-10-13T11:07:01.842Z,33.30
2023-10-13T11:09:38.058Z,28.38
2023-10-13T11:14:33.299Z,31.00
2023-10-13T11:17:15.190Z,30.37
2023-10-13T11:19:43.677Z,32.88
2023-10-13T11:22:35.191Z,41.60
2023-10-13T11:25:12.763Z,20.02
2023-10-13T11:27:52.404Z,25.73
2023-10-13T11:30:26.641Z,24.45
2023-10-13T11:33:07.280Z,20.42
2023-10-13T11:35:55.837Z,22.10
2023-10-13T11:38:28.192Z,27.13
2023-10-13T11:41:05.612Z,27.85
2023-10-13T11:43:52.219Z,18.58
2023-10-13T11:46:37.857Z,19.33
2023-10-13T11:49:17.100Z,20.95
2023-10-13T11:51:49.064Z,16.58
2023-10-13T11:54:16.963Z,28.55
2023-10-13T11:56:47.682Z,18.40
2023-10-13T11:59:25.771Z,31.37
2023-10-13T12:02:12.274Z,15.30
2023-10-13T12:04:58.026Z,26.27
2023-10-13T12:07:28.481Z,33.25
2023-10-13T12:09:56.330Z,16.87
2023-10-13T12:12:27.156Z,16.83
2023-10-13T12:14:57.607Z,18.40
2023-10-13T12:17:29.543Z,18.67
2023-10-13T12:19:58.418Z,13.73
2023-10-13T12:22:46.803Z,12.37
2023-10-13T12:25:26.982Z,18.08
2023-10-13T12:27:58.876Z,17.70
2023-10-13T12:30:45.274Z,15.35
2023-10-13T12:33:13.078Z,17.10
2023-10-13T12:35:59.976Z,19.85
2023-10-13T12:38:46.466Z,16.45
2023-10-13T12:41:35.890Z,15.30
2023-10-13T12:44:24.010Z,12.02
2023-10-13T12:47:13.396Z,12.73
2023-10-13T12:49:45.175Z,16.65
2023-10-13T12:52:20.753Z,11.88
2023-10-13T12:54:48.792Z,13.40
2023-10-13T12:57:16.869Z,22.05
2023-10-13T12:59:44.536Z,12.57
2023-10-13T13:02:16.661Z,15.13
2023-10-13T13:04:49.372Z,20.73
2023-10-13T13:07:17.163Z,24.35
2023-10-13T13:09:44.614Z,26.17
2023-10-13T13:12:14.877Z,24.45
2023-10-13T13:14:47.081Z,13.80
2023-10-13T13:17:14.793Z,18.15
2023-10-13T13:19:43.239Z,25.12
2023-10-13T13:22:13.144Z,15.30
2023-10-13T13:24:44.794Z,15.43
2023-10-13T13:27:16.093Z,13.35
2023-10-13T13:29:44.649Z,16.77
2023-10-13T13:32:25.562Z,16.45
2023-10-13T13:35:06.455Z,14.15
2023-10-13T13:37:34.034Z,15.73
2023-10-13T13:40:19.362Z,18.67
2023-10-13T13:42:46.910Z,14.00
2023-10-13T13:45:28.338Z,12.10
2023-10-13T13:47:56.319Z,17.25
2023-10-13T13:50:31.184Z,11.30
2023-10-13T13:52:58.923Z,16.48
2023-10-13T13:55:30.225Z,13.07
2023-10-13T13:57:57.976Z,16.42
2023-10-13T14:00:47.446Z,20.92
2023-10-13T14:03:32.254Z,13.85
2023-10-13T14:06:00.822Z,14.65
2023-10-13T14:08:28.600Z,17.08
2023-10-13T14:11:14.707Z,15.82
2023-10-13T14:13:50.126Z,19.77
2023-10-13T14:16:18.276Z,15.07
2023-10-13T14:18:47.125Z,21.15
2023-10-13T14:21:20.621Z,13.75
2023-10-13T14:23:48.738Z,16.90
2023-10-13T14:26:21.156Z,14.00
2023-10-13T14:29:07.817Z,12.63
2023-10-13T14:31:37.602Z,12.25
2023-10-13T14:34:05.353Z,14.48
2023-10-13T14:36:35.992Z,12.05
2023-10-13T14:39:05.703Z,13.55
2023-10-13T14:41:33.420Z,16.92
2023-10-13T14:44:06.328Z,18.30
2023-10-13T14:46:39.697Z,16.87
2023-10-13T14:49:07.333Z,19.45
2023-10-13T14:51:40.582Z,19.83
2023-10-13T14:54:08.046Z,17.12
2023-10-13T14:56:35.670Z,19.75
2023-10-13T14:59:06.160Z,17.37
2023-10-13T15:01:34.012Z,20.85
2023-10-13T15:04:01.804Z,13.88
2023-10-13T15:06:32.155Z,12.65
2023-10-13T15:09:00.514Z,15.35
2023-10-13T15:11:44.102Z,15.93
2023-10-13T15:14:14.949Z,22.98
2023-10-13T15:16:44.408Z,22.40
2023-10-13T15:19:13.261Z,36.72
2023-10-13T15:21:44.522Z,35.20
2023-10-13T15:26:53.829Z,53.08
2023-10-13T15:29:27.735Z,46.72
2023-10-13T15:32:01.457Z,32.58
2023-10-13T15:34:29.553Z,23.60
2023-10-13T15:36:57.854Z,18.37
2023-10-13T15:39:25.364Z,18.17
2023-10-13T15:41:59.323Z,16.98
2023-10-13T15:44:27.240Z,15.27
2023-10-13T15:49:29.061Z,17.67
2023-10-13T15:52:00.209Z,15.35
2023-10-13T15:54:27.637Z,15.20
2023-10-13T15:56:57.906Z,17.42
2023-10-13T15:59:25.564Z,11.77
2023-10-13T16:01:59.462Z,16.00
2023-10-13T16:04:27.541Z,12.68
2023-10-13T16:06:55.142Z,14.98
2023-10-13T16:09:26.099Z,16.45
2023-10-13T16:11:54.317Z,18.45
2023-10-13T16:14:22.611Z,15.65
2023-10-13T16:16:51.999Z,16.42
2023-10-13T16:19:23.181Z,21.40
2023-10-13T16:21:51.978Z,15.32
2023-10-13T16:24:19.902Z,14.27
2023-10-13T16:26:53.799Z,18.60
2023-10-13T16:29:21.632Z,17.05
2023-10-13T16:31:49.117Z,18.05
2023-10-13T16:34:17.307Z,16.12
2023-10-13T16:36:45.838Z,15.55
2023-10-13T16:39:16.385Z,13.75
2023-10-13T16:41:46.434Z,18.80
2023-10-13T16:44:14.442Z,14.68
2023-10-13T16:46:42.064Z,14.48
2023-10-13T16:49:09.648Z,17.65
2023-10-13T16:51:37.752Z,17.45
2023-10-13T16:54:06.075Z,26.80
2023-10-13T16:56:37.092Z,25.12
2023-10-13T16:59:08.424Z,17.90
2023-10-13T17:01:36.523Z,18.05
2023-10-13T17:04:05.983Z,16.25
2023-10-13T17:06:35.058Z,15.15
2023-10-13T17:09:05.172Z,21.50
2023-10-13T17:11:32.709Z,18.02
2023-10-13T17:14:00.355Z,18.70
2023-10-13T17:16:27.797Z,21.87
2023-10-13T17:18:55.926Z,21.08
2023-10-13T17:21:29.444Z,18.77
2023-10-13T17:23:57.586Z,16.02
2023-10-13T17:26:27.974Z,13.85
2023-10-13T17:29:03.913Z,14.13
2023-10-13T17:31:33.575Z,20.80
2023-10-13T17:34:01.936Z,18.52
2023-10-13T17:36:30.503Z,19.83
2023-10-13T17:38:58.298Z,18.80
2023-10-13T17:41:25.936Z,20.65
2023-10-13T17:43:54.065Z,19.58
2023-10-13T17:46:23.944Z,16.40
2023-10-13T17:48:55.444Z,17.50
2023-10-13T17:51:24.640Z,20.23
2023-10-13T17:53:53.882Z,18.73
2023-10-13T17:56:21.640Z,22.50
2023-10-13T17:58:52.312Z,23.65
2023-10-13T18:01:21.126Z,22.15
2023-10-13T18:03:52.904Z,16.60
2023-10-13T18:06:21.845Z,20.20
2023-10-13T18:08:53.400Z,21.67
2023-10-13T18:11:25.048Z,23.42
2023-10-13T18:13:52.713Z,18.90
2023-10-13T18:16:21.110Z,15.38
2023-10-13T18:18:51.514Z,19.98
2023-10-13T18:21:22.000Z,16.85
2023-10-13T18:23:49.806Z,20.60
2023-10-13T18:26:17.328Z,21.73
2023-10-13T18:28:44.942Z,17.27
2023-10-13T18:31:13.066Z,18.98
2023-10-13T18:33:41.265Z,17.33
2023-10-13T18:36:16.134Z,18.92
2023-10-13T18:38:44.722Z,18.02
2023-10-13T18:41:20.434Z,19.45
2023-10-13T18:43:48.835Z,18.67
2023-10-13T18:46:17.779Z,16.50
2023-10-13T18:48:46.124Z,24.52
2023-10-13T18:51:20.080Z,22.02
2023-10-13T18:53:47.867Z,37.47
2023-10-13T18:56:14.994Z,18.77
2023-10-13T18:58:49.671Z,18.27
2023-10-13T19:01:18.805Z,15.55
2023-10-13T19:03:49.792Z,20.00
2023-10-13T19:06:17.418Z,19.98
2023-10-13T19:08:45.366Z,17.33
2023-10-13T19:11:12.706Z,24.50
2023-10-13T19:13:40.936Z,22.87
2023-10-13T19:16:13.814Z,23.50
2023-10-13T19:18:42.158Z,21.05
2023-10-13T19:21:18.767Z,22.08
2023-10-13T19:23:53.063Z,29.17
2023-10-13T19:26:30.191Z,22.10
2023-10-13T19:29:00.786Z,19.90
2023-10-13T19:31:29.136Z,23.62
2023-10-13T19:33:57.844Z,21.35
2023-10-13T19:36:25.241Z,27.45
2023-10-13T19:38:53.805Z,20.20
2023-10-13T19:41:28.055Z,23.33
2023-10-13T19:44:00.860Z,25.80
2023-10-13T19:46:29.100Z,21.58
2023-10-13T19:48:58.067Z,19.48
2023-10-13T19:51:29.030Z,21.67
2023-10-13T19:54:01.386Z,23.62
2023-10-13T19:56:34.871Z,29.33
2023-10-13T19:59:02.919Z,20.67
2023-10-13T20:01:34.934Z,22.45
2023-10-13T20:04:08.091Z,19.15
2023-10-13T20:06:36.170Z,23.70
2023-10-13T20:09:10.674Z,24.73
2023-10-13T20:11:38.408Z,21.33
2023-10-13T20:14:06.185Z,25.60
2023-10-13T20:16:34.149Z,19.92
2023-10-13T20:19:02.318Z,21.50
2023-10-13T20:21:30.324Z,21.67
2023-10-13T20:24:01.384Z,22.05
2023-10-13T20:26:29.448Z,21.98
2023-10-13T20:28:57.805Z,24.20
2023-10-13T20:31:25.262Z,18.90
2023-10-13T20:33:56.115Z,14.27
2023-10-13T20:36:27.110Z,19.75
2023-10-13T20:38:54.603Z,22.33
2023-10-13T20:41:22.011Z,18.73
2023-10-13T20:43:50.176Z,19.80
2023-10-13T20:46:17.557Z,22.67
2023-10-13T20:48:51.234Z,18.80
2023-10-13T20:51:19.183Z,20.75
2023-10-13T20:53:48.367Z,23.67
2023-10-13T20:56:16.125Z,18.67
2023-10-13T20:58:57.515Z,21.00
2023-10-13T21:01:25.263Z,21.58
2023-10-13T21:03:53.338Z,23.05
2023-10-13T21:06:20.866Z,23.17
2023-10-13T21:08:48.376Z,22.33
2023-10-13T21:11:16.634Z,25.77
2023-10-13T21:13:44.348Z,25.98
2023-10-13T21:16:12.151Z,19.90
2023-10-13T21:18:44.210Z,23.58
2023-10-13T21:21:19.473Z,23.77
2023-10-13T21:23:56.015Z,21.12
2023-10-13T21:26:30.187Z,27.25
2023-10-13T21:28:58.059Z,23.42
2023-10-13T21:31:25.715Z,19.58
2023-10-13T21:33:57.166Z,20.70
2023-10-13T21:36:28.350Z,23.35
2023-10-13T21:38:55.938Z,17.70
2023-10-13T21:41:23.779Z,23.23
2023-10-13T21:43:55.836Z,18.90
2023-10-13T21:46:24.479Z,28.25
2023-10-13T21:48:52.970Z,21.83
2023-10-13T21:51:21.610Z,21.27
2023-10-13T21:53:48.991Z,19.90
2023-10-13T21:56:17.696Z,22.55
2023-10-13T21:58:46.593Z,21.10
2023-10-13T22:01:23.756Z,21.15
2023-10-13T22:04:10.035Z,21.70
2023-10-13T22:06:38.667Z,17.67
2023-10-13T22:09:08.243Z,19.33
2023-10-13T22:11:36.909Z,15.38
2023-10-13T22:14:06.494Z,25.20
2023-10-13T22:16:34.546Z,20.77
2023-10-13T22:19:02.154Z,19.60
2023-10-13T22:21:30.223Z,17.52
2023-10-13T22:24:01.722Z,22.80
2023-10-13T22:26:31.346Z,19.48
2023-10-13T22:28:59.837Z,24.17
2023-10-13T22:31:27.812Z,22.80
2023-10-13T22:33:56.261Z,25.40
2023-10-13T22:36:24.439Z,18.83
2023-10-13T22:38:56.385Z,32.33
2023-10-13T22:41:24.436Z,18.17
2023-10-13T22:43:51.847Z,22.17
2023-10-13T22:46:19.966Z,19.17
2023-10-13T22:48:48.246Z,18.45
2023-10-13T22:51:16.233Z,22.02
2023-10-13T22:53:46.831Z,20.77
2023-10-13T22:56:19.323Z,31.30
2023-10-13T22:58:47.897Z,20.15
2023-10-13T23:01:18.988Z,21.10
2023-10-13T23:03:59.781Z,22.08
2023-10-13T23:06:40.709Z,19.83
2023-10-13T23:09:25.670Z,22.05
2023-10-13T23:11:57.968Z,26.30
2023-10-13T23:14:26.629Z,26.48
2023-10-13T23:16:54.400Z,25.27
2023-10-13T23:19:24.101Z,32.40
2023-10-13T23:21:52.322Z,24.63
2023-10-13T23:24:20.045Z,29.20
2023-10-13T23:26:47.449Z,26.80
2023-10-13T23:29:14.946Z,25.55
2023-10-13T23:31:44.987Z,25.85
2023-10-13T23:34:12.513Z,27.58
2023-10-13T23:36:40.094Z,22.40
2023-10-13T23:39:11.078Z,22.10
2023-10-13T23:41:42.256Z,25.90
2023-10-13T23:44:16.657Z,23.38
2023-10-13T23:46:48.028Z,28.77
2023-10-13T23:49:22.081Z,21.55
2023-10-13T23:52:02.469Z,27.10
2023-10-13T23:54:40.068Z,24.37
2023-10-13T23:57:08.213Z,25.92
2023-10-13T23:59:41.708Z,24.85
